Terminal Aerodrome Forecast
Issued by NWS Central Illinois

Home | Current Version | Previous Version | Text Only | Print | Product List | Glossary On
Versions: 1 2 3 4 5 6 7 8 9 10 11 12 13 14 15 16
000
FTUS43 KILX 060520
TAFPIA
TAF
KPIA 060520Z 0606/0706 16007KT P6SM SKC
     FM060900 17006KT 4SM BR SKC
     FM061400 19012G18KT P6SM SCT030
     FM070000 20012KT P6SM VCTS SCT050CB OVC250
     FM070300 19010KT 5SM -TSRA BR BKN040CB=

USA.gov is the U.S. government's official web portal to all federal, state and local government web resources and services.